Time;durP1;ratioP1;P1;durP2;ratioP2;P2;SDS_P1;SDS_P2;PMS_P1;PMS_P2;Temp;Humidity;BMP_temperature;BMP_pressure;BME280_temperature;BME280_humidity;BME280_pressure;Samples;Min_cycle;Max_cycle;Signal;HPM_P1;HPM_P2
2022/01/03 00:00:14;;;;;;;3.20;1.48;;;11.80;99.90;;;;;;4993493;28;20027;-81
2022/01/03 00:02:41;;;;;;;0.88;0.85;;;11.80;99.90;;;;;;4993237;28;20069;-81
2022/01/03 00:05:07;;;;;;;3.80;0.22;;;11.80;99.90;;;;;;4993438;28;20105;-82
2022/01/03 00:07:37;;;;;;;0.77;0.60;;;11.90;99.90;;;;;;4993655;28;20026;-74
2022/01/03 00:10:05;;;;;;;0.63;0.40;;;11.90;99.90;;;;;;4993079;28;20405;-81
2022/01/03 00:12:32;;;;;;;1.25;0.40;;;11.90;99.90;;;;;;4993184;28;20093;-81
2022/01/03 00:14:58;;;;;;;0.63;0.60;;;11.80;99.90;;;;;;4993298;28;20025;-82
2022/01/03 00:17:24;;;;;;;0.00;0.00;;;11.70;99.90;;;;;;4992820;28;20077;-81
2022/01/03 00:19:49;;;;;;;0.00;0.00;;;11.70;99.90;;;;;;4992026;28;20059;-74
2022/01/03 00:22:19;;;;;;;0.88;0.80;;;11.70;99.90;;;;;;4992733;28;20508;-74
2022/01/03 00:24:58;;;;;;;2.83;1.10;;;11.70;99.90;;;;;;4993080;28;20027;-82
2022/01/03 00:27:34;;;;;;;0.08;0.08;;;11.70;99.90;;;;;;5008274;28;20030;-82
2022/01/03 00:29:59;;;;;;;0.25;0.25;;;11.80;99.90;;;;;;5011925;28;20042;-82
2022/01/03 00:32:28;;;;;;;2.00;1.17;;;11.70;99.90;;;;;;4994620;28;20116;-74
2022/01/03 00:34:55;;;;;;;0.55;0.55;;;11.80;99.90;;;;;;4993004;28;20042;-82
2022/01/03 00:37:23;;;;;;;0.38;0.32;;;11.90;99.90;;;;;;4992740;28;20041;-81
2022/01/03 00:39:50;;;;;;;0.47;0.47;;;11.90;99.90;;;;;;4992920;28;20035;-82
2022/01/03 00:42:16;;;;;;;0.05;0.05;;;12.00;99.90;;;;;;4993143;28;20101;-82
2022/01/03 00:44:46;;;;;;;2.28;0.90;;;12.00;99.90;;;;;;4992856;28;20076;-81
2022/01/03 00:47:12;;;;;;;15.68;0.57;;;12.10;99.90;;;;;;4992220;28;20081;-75
2022/01/03 00:49:40;;;;;;;0.20;0.20;;;12.20;99.90;;;;;;5012286;28;20026;-75
2022/01/03 00:52:06;;;;;;;0.00;0.00;;;12.20;99.90;;;;;;5012426;28;20030;-82
2022/01/03 00:54:32;;;;;;;10.65;0.75;;;12.20;99.90;;;;;;5012416;28;20034;-81
2022/01/03 00:57:04;;;;;;;0.20;0.20;;;12.20;99.90;;;;;;5012459;28;20033;-74
2022/01/03 00:59:40;;;;;;;0.00;0.00;;;12.20;99.90;;;;;;5012293;28;20397;-74
2022/01/03 01:02:08;;;;;;;0.03;0.03;;;12.20;99.90;;;;;;5012119;28;20021;-74
2022/01/03 01:04:34;;;;;;;4.20;0.70;;;12.30;99.90;;;;;;5012383;28;20397;-82
2022/01/03 01:07:00;;;;;;;2.45;1.48;;;12.20;99.90;;;;;;5012213;28;20426;-81
2022/01/03 01:09:28;;;;;;;0.00;0.00;;;12.20;99.90;;;;;;5010692;28;20133;-74
2022/01/03 01:11:56;;;;;;;0.25;0.25;;;12.20;99.90;;;;;;5010888;28;20041;-74
2022/01/03 01:14:23;;;;;;;1.23;1.13;;;12.20;99.90;;;;;;5012209;28;20038;-74
2022/01/03 01:16:50;;;;;;;0.13;0.13;;;12.10;99.90;;;;;;5012136;28;20022;-81
2022/01/03 01:19:18;;;;;;;7.82;0.68;;;12.10;99.90;;;;;;5012039;28;20033;-75
2022/01/03 01:21:44;;;;;;;16.85;3.40;;;12.20;99.90;;;;;;5010564;28;20029;-82
2022/01/03 01:24:10;;;;;;;6.72;2.72;;;12.10;99.90;;;;;;5012102;28;20477;-82
2022/01/03 01:29:19;;;;;;;0.00;0.00;;;12.10;99.90;;;;;;5012075;28;20057;-74
2022/01/03 01:31:48;;;;;;;0.00;0.00;;;12.10;99.90;;;;;;4999972;28;20022;-74
2022/01/03 01:34:25;;;;;;;1.67;0.30;;;12.10;99.90;;;;;;4991137;28;20045;-74
2022/01/03 01:36:52;;;;;;;0.32;0.22;;;12.10;99.90;;;;;;4992267;28;20402;-81
2022/01/03 01:39:20;;;;;;;7.22;0.90;;;12.10;99.90;;;;;;4995164;28;20022;-81
2022/01/03 01:41:46;;;;;;;3.00;1.35;;;12.20;99.90;;;;;;4996210;28;20482;-81
2022/01/03 01:44:14;;;;;;;4.13;1.20;;;12.20;99.90;;;;;;4996034;28;20037;-82
2022/01/03 01:46:49;;;;;;;0.43;0.43;;;12.20;99.90;;;;;;4995709;28;20054;-74
2022/01/03 01:49:20;;;;;;;1.80;1.27;;;12.20;99.90;;;;;;5011582;28;20022;-74
2022/01/03 01:51:48;;;;;;;3.20;2.20;;;12.10;99.90;;;;;;5015300;28;20393;-74
2022/01/03 01:54:17;;;;;;;0.32;0.32;;;12.10;99.90;;;;;;5015067;28;20056;-74
2022/01/03 01:57:20;;;;;;;0.25;0.25;;;12.10;99.90;;;;;;5015248;28;20022;-82
2022/01/03 02:00:13;;;;;;;0.43;0.43;;;12.10;99.90;;;;;;5015246;28;20026;-82
2022/01/03 02:03:05;;;;;;;1.40;0.53;;;12.20;99.90;;;;;;5015127;28;20033;-82
2022/01/03 02:05:36;;;;;;;1.65;0.85;;;12.20;99.90;;;;;;5014979;28;20257;-74
2022/01/03 02:08:13;;;;;;;1.50;0.73;;;12.10;99.90;;;;;;5015035;28;20030;-82
2022/01/03 02:10:58;;;;;;;1.15;0.47;;;12.10;99.90;;;;;;5014886;28;20551;-82
2022/01/03 02:13:25;;;;;;;0.47;0.47;;;12.00;99.90;;;;;;5014045;28;20562;-74
2022/01/03 02:16:03;;;;;;;0.00;0.00;;;12.00;99.90;;;;;;5014865;28;20477;-74
2022/01/03 02:18:30;;;;;;;3.78;1.20;;;12.00;99.90;;;;;;5013201;28;20034;-74
2022/01/03 02:20:56;;;;;;;1.30;0.98;;;12.00;99.90;;;;;;5014637;28;20026;-74
2022/01/03 02:23:22;;;;;;;0.95;0.95;;;12.00;99.90;;;;;;5014628;28;20118;-82
2022/01/03 02:25:48;;;;;;;2.47;1.25;;;12.00;99.90;;;;;;5014881;28;20054;-82
2022/01/03 02:28:16;;;;;;;13.45;2.60;;;12.00;99.90;;;;;;5014609;28;20485;-74
2022/01/03 02:30:43;;;;;;;2.42;1.35;;;12.10;99.90;;;;;;5010151;28;20050;-75
2022/01/03 02:33:09;;;;;;;1.02;0.95;;;12.10;99.90;;;;;;4995019;28;20034;-74
2022/01/03 02:35:38;;;;;;;0.20;0.20;;;12.10;99.90;;;;;;4994790;28;20105;-82
2022/01/03 02:38:04;;;;;;;0.68;0.68;;;12.10;99.90;;;;;;4994697;28;20054;-83
2022/01/03 02:40:30;;;;;;;2.08;0.68;;;12.10;99.90;;;;;;4993614;28;20030;-81
2022/01/03 02:42:56;;;;;;;0.30;0.30;;;12.00;99.90;;;;;;4995126;28;20026;-74
2022/01/03 02:45:23;;;;;;;3.33;1.33;;;12.00;99.90;;;;;;4994751;28;20030;-74
2022/01/03 02:47:58;;;;;;;0.00;0.00;;;12.00;99.90;;;;;;4999132;28;20025;-82
2022/01/03 02:50:26;;;;;;;0.47;0.47;;;12.00;99.90;;;;;;5013431;28;20382;-82
2022/01/03 02:52:52;;;;;;;0.25;0.25;;;12.00;99.90;;;;;;5014037;28;20449;-82
2022/01/03 02:55:19;;;;;;;0.45;0.45;;;12.00;99.90;;;;;;5014257;28;20493;-74
2022/01/03 02:57:47;;;;;;;5.07;2.15;;;12.00;99.90;;;;;;5014033;28;20026;-74
2022/01/03 03:00:25;;;;;;;0.20;0.20;;;12.00;99.90;;;;;;5014084;28;20022;-74
2022/01/03 03:02:51;;;;;;;1.45;0.30;;;12.10;99.90;;;;;;5013805;28;20057;-82
2022/01/03 03:05:17;;;;;;;0.05;0.05;;;12.10;99.90;;;;;;5013764;28;20073;-82
2022/01/03 03:07:45;;;;;;;5.63;2.33;;;12.10;99.90;;;;;;5013414;28;20030;-78
2022/01/03 03:10:13;;;;;;;3.05;1.17;;;12.10;99.90;;;;;;5013358;28;20029;-75
2022/01/03 03:12:40;;;;;;;1.15;0.98;;;12.10;99.90;;;;;;5012540;28;20025;-82
2022/01/03 03:15:08;;;;;;;0.93;0.55;;;12.20;99.90;;;;;;5013859;28;20010;-74
2022/01/03 03:17:35;;;;;;;6.97;1.48;;;12.20;99.90;;;;;;5012869;28;20109;-82
2022/01/03 03:20:09;;;;;;;4.13;2.05;;;12.20;99.90;;;;;;5014084;28;20021;-81
2022/01/03 03:22:36;;;;;;;41.20;2.97;;;12.20;99.90;;;;;;5013539;28;20088;-74
2022/01/03 03:25:09;;;;;;;0.43;0.43;;;12.10;99.90;;;;;;5013711;28;20469;-82
2022/01/03 03:27:42;;;;;;;2.55;0.80;;;12.10;99.90;;;;;;5012220;28;20401;-83
2022/01/03 03:30:13;;;;;;;1.98;1.38;;;12.20;99.90;;;;;;5013645;28;20092;-82
2022/01/03 03:32:39;;;;;;;2.72;1.48;;;12.20;99.90;;;;;;5013268;28;20085;-81
2022/01/03 03:35:05;;;;;;;14.93;3.90;;;12.30;99.90;;;;;;5013477;28;20396;-74
2022/01/03 03:37:31;;;;;;;0.00;0.00;;;12.20;99.90;;;;;;5013148;28;20022;-74
2022/01/03 03:39:57;;;;;;;5.43;1.23;;;12.30;99.90;;;;;;5013433;28;20393;-82
2022/01/03 03:42:22;;;;;;;0.63;0.55;;;12.30;99.90;;;;;;5013397;28;20018;-81
2022/01/03 03:44:48;;;;;;;0.00;0.00;;;12.30;99.90;;;;;;5013548;28;20037;-82
2022/01/03 03:47:14;;;;;;;1.65;0.63;;;12.30;99.90;;;;;;5013050;28;20029;-74
2022/01/03 03:49:40;;;;;;;2.70;1.25;;;12.30;99.90;;;;;;5011477;28;20036;-82
2022/01/03 03:52:05;;;;;;;0.20;0.20;;;12.30;99.90;;;;;;5012882;28;20076;-81
2022/01/03 03:54:32;;;;;;;3.28;2.28;;;12.30;99.90;;;;;;5012992;28;20036;-81
2022/01/03 03:56:59;;;;;;;0.15;0.15;;;12.30;99.90;;;;;;5013420;28;20033;-81
2022/01/03 03:59:25;;;;;;;4.57;1.45;;;12.30;99.90;;;;;;5012881;28;20026;-82
2022/01/03 04:01:52;;;;;;;8.10;2.63;;;12.30;99.90;;;;;;5011901;28;20029;-74
2022/01/03 04:04:19;;;;;;;0.80;0.80;;;12.30;99.90;;;;;;5012838;28;20025;-82
2022/01/03 04:06:44;;;;;;;0.43;0.30;;;12.20;99.90;;;;;;5012798;28;20028;-81
2022/01/03 04:09:10;;;;;;;0.00;0.00;;;12.20;99.90;;;;;;4993252;28;20405;-81
2022/01/03 04:11:36;;;;;;;1.13;1.13;;;12.20;99.90;;;;;;4991928;28;20041;-81
2022/01/03 04:14:01;;;;;;;0.00;0.00;;;12.20;99.90;;;;;;4993440;28;20034;-80
2022/01/03 04:16:27;;;;;;;0.00;0.00;;;12.10;99.90;;;;;;4993175;28;20022;-74
2022/01/03 04:18:53;;;;;;;1.00;0.98;;;12.10;99.90;;;;;;4992727;28;20079;-79
2022/01/03 04:21:19;;;;;;;16.52;1.02;;;12.10;99.90;;;;;;4992974;28;20026;-79
2022/01/03 04:23:44;;;;;;;2.50;1.05;;;12.10;99.90;;;;;;4993135;28;20026;-76
2022/01/03 04:26:11;;;;;;;0.55;0.55;;;12.10;99.90;;;;;;4999018;28;20014;-75
2022/01/03 04:28:38;;;;;;;1.08;1.02;;;12.10;99.90;;;;;;5012723;28;20049;-74
2022/01/03 04:31:03;;;;;;;0.00;0.00;;;12.00;99.90;;;;;;5012827;28;20109;-79
2022/01/03 04:33:29;;;;;;;13.80;1.65;;;12.10;99.90;;;;;;5012428;28;20104;-80
2022/01/03 04:35:55;;;;;;;0.20;0.20;;;12.10;99.90;;;;;;5012498;28;20025;-80
2022/01/03 04:38:20;;;;;;;0.00;0.00;;;12.00;99.90;;;;;;5012561;28;20072;-80
2022/01/03 04:40:46;;;;;;;0.75;0.75;;;12.00;99.90;;;;;;5012625;28;20030;-75
2022/01/03 04:43:12;;;;;;;0.00;0.00;;;12.00;99.90;;;;;;5012702;28;20129;-80
2022/01/03 04:45:37;;;;;;;0.00;0.00;;;12.00;99.90;;;;;;5012619;28;20120;-80
2022/01/03 04:48:03;;;;;;;0.28;0.28;;;12.00;99.90;;;;;;5012382;28;20038;-80
2022/01/03 04:50:29;;;;;;;0.47;0.35;;;12.00;99.90;;;;;;5010710;28;20030;-75
2022/01/03 04:52:55;;;;;;;1.92;1.83;;;12.00;99.90;;;;;;5010998;28;20038;-74
2022/01/03 04:55:20;;;;;;;0.10;0.10;;;12.00;99.90;;;;;;5012552;28;20063;-80
2022/01/03 04:57:46;;;;;;;0.15;0.15;;;12.00;99.90;;;;;;5012681;28;20105;-80
2022/01/03 05:00:12;;;;;;;0.20;0.20;;;12.00;99.90;;;;;;5012469;28;20022;-81
2022/01/03 05:02:38;;;;;;;0.22;0.22;;;12.00;99.90;;;;;;5010704;28;20073;-80
2022/01/03 05:05:06;;;;;;;0.70;0.70;;;12.00;99.90;;;;;;5012358;28;20567;-80
2022/01/03 05:07:31;;;;;;;0.80;0.10;;;12.00;99.90;;;;;;5012305;28;20083;-81
2022/01/03 05:09:57;;;;;;;0.30;0.30;;;12.10;99.90;;;;;;5012153;28;20477;-74
2022/01/03 05:12:23;;;;;;;0.30;0.30;;;12.10;99.90;;;;;;5012300;28;20022;-80
2022/01/03 05:14:48;;;;;;;2.65;0.52;;;12.10;99.90;;;;;;5016187;28;20509;-80
2022/01/03 05:17:14;;;;;;;1.77;1.60;;;12.10;99.90;;;;;;5015798;28;20030;-74
2022/01/03 05:19:39;;;;;;;1.27;0.68;;;12.10;99.90;;;;;;5015922;28;20124;-74
2022/01/03 05:22:05;;;;;;;0.00;0.00;;;12.00;99.90;;;;;;5015609;28;20532;-75
2022/01/03 05:24:35;;;;;;;0.10;0.10;;;12.10;99.90;;;;;;5016000;28;20425;-80
2022/01/03 05:27:07;;;;;;;0.00;0.00;;;12.10;99.90;;;;;;5015538;28;20050;-75
2022/01/03 05:29:34;;;;;;;0.10;0.10;;;12.10;99.90;;;;;;5015768;28;20061;-81
2022/01/03 05:32:00;;;;;;;0.15;0.15;;;12.10;99.90;;;;;;5010928;28;20026;-74
2022/01/03 05:34:26;;;;;;;0.20;0.20;;;12.10;99.90;;;;;;4996344;28;20034;-81
2022/01/03 05:36:51;;;;;;;0.65;0.65;;;12.00;99.90;;;;;;4995953;28;20576;-82
2022/01/03 05:39:17;;;;;;;0.00;0.00;;;12.10;99.90;;;;;;4995939;28;20027;-82
2022/01/03 05:41:43;;;;;;;0.00;0.00;;;12.10;99.90;;;;;;4996210;28;20030;-82
2022/01/03 05:44:09;;;;;;;0.00;0.00;;;12.00;99.90;;;;;;4996070;28;20022;-75
2022/01/03 05:46:35;;;;;;;0.10;0.10;;;12.10;99.90;;;;;;4995840;28;20027;-75
2022/01/03 05:49:01;;;;;;;1.65;1.50;;;12.10;99.90;;;;;;5011241;28;20071;-82
2022/01/03 05:51:27;;;;;;;0.05;0.05;;;12.10;99.90;;;;;;5012522;28;20129;-82
2022/01/03 05:53:53;;;;;;;0.00;0.00;;;12.10;99.90;;;;;;5013961;28;20033;-81
2022/01/03 05:56:19;;;;;;;0.55;0.52;;;12.10;99.90;;;;;;5012748;28;20180;-81
2022/01/03 05:58:45;;;;;;;17.33;0.65;;;12.00;99.90;;;;;;5014508;28;20065;-75
2022/01/03 06:01:11;;;;;;;0.00;0.00;;;12.00;99.90;;;;;;5015128;28;20057;-74
2022/01/03 06:03:39;;;;;;;3.72;0.47;;;12.00;99.90;;;;;;5015136;28;20481;-74
2022/01/03 06:06:19;;;;;;;0.00;0.00;;;12.00;99.90;;;;;;5014740;28;20028;-81
2022/01/03 06:08:45;;;;;;;0.00;0.00;;;12.00;99.90;;;;;;5013487;28;20500;-81
2022/01/03 06:11:11;;;;;;;0.20;0.20;;;12.10;99.90;;;;;;5014764;28;20561;-75
2022/01/03 06:13:36;;;;;;;0.10;0.10;;;12.10;99.90;;;;;;5014910;28;20100;-75
2022/01/03 06:16:02;;;;;;;0.00;0.00;;;12.10;99.90;;;;;;5015360;28;20378;-81
2022/01/03 06:18:28;;;;;;;0.00;0.00;;;12.10;99.90;;;;;;5014549;28;20116;-81
2022/01/03 06:20:54;;;;;;;0.10;0.10;;;12.10;99.90;;;;;;5014710;28;20036;-82
2022/01/03 06:23:20;;;;;;;0.30;0.30;;;12.10;99.90;;;;;;5014235;28;20018;-74
2022/01/03 06:25:46;;;;;;;0.00;0.00;;;12.10;99.90;;;;;;5014551;28;20724;-75
2022/01/03 06:28:13;;;;;;;0.00;0.00;;;12.00;99.90;;;;;;5014487;28;20062;-82
2022/01/03 06:30:40;;;;;;;0.00;0.00;;;12.10;99.90;;;;;;5014576;28;20030;-82
2022/01/03 06:33:08;;;;;;;0.00;0.00;;;12.10;99.90;;;;;;5000721;28;20019;-82
2022/01/03 06:35:35;;;;;;;0.00;0.00;;;12.10;99.90;;;;;;4998704;28;20057;-82
2022/01/03 06:38:01;;;;;;;0.00;0.00;;;12.10;99.90;;;;;;5011580;28;20018;-74
2022/01/03 06:40:27;;;;;;;0.73;0.73;;;12.10;99.90;;;;;;5014398;28;20034;-74
2022/01/03 06:42:54;;;;;;;0.28;0.28;;;12.20;99.90;;;;;;5017723;28;20109;-74
2022/01/03 06:45:19;;;;;;;0.08;0.08;;;12.20;99.90;;;;;;5016069;28;20026;-80
2022/01/03 06:47:46;;;;;;;0.15;0.15;;;12.20;99.90;;;;;;5018945;28;20105;-80
2022/01/03 06:50:11;;;;;;;0.47;0.30;;;12.30;99.90;;;;;;5015337;28;20064;-74
2022/01/03 06:52:37;;;;;;;2.13;1.17;;;12.30;99.90;;;;;;5013392;28;20076;-74
2022/01/03 06:55:05;;;;;;;3.78;1.52;;;12.30;99.90;;;;;;5022209;28;20034;-80
2022/01/03 06:57:31;;;;;;;0.05;0.05;;;12.30;99.90;;;;;;5022431;28;20049;-81
2022/01/03 06:59:57;;;;;;;1.10;0.73;;;12.30;99.90;;;;;;5015732;28;20030;-80
2022/01/03 07:02:22;;;;;;;1.65;1.27;;;12.30;99.90;;;;;;5017109;28;20021;-75
2022/01/03 07:04:48;;;;;;;0.00;0.00;;;12.30;99.90;;;;;;5014049;28;20061;-75
2022/01/03 07:07:14;;;;;;;0.10;0.10;;;12.30;99.90;;;;;;5007819;28;20557;-76
2022/01/03 07:09:40;;;;;;;0.00;0.00;;;12.20;99.90;;;;;;5010743;28;20136;-74
2022/01/03 07:12:06;;;;;;;0.00;0.00;;;12.30;99.90;;;;;;5009551;28;20551;-80
2022/01/03 07:19:47;;;;;;;0.45;0.45;;;12.10;99.90;;;;;;4993501;28;20084;-74
2022/01/03 07:22:13;;;;;;;0.00;0.00;;;12.10;99.90;;;;;;5001372;28;20037;-74
2022/01/03 07:24:40;;;;;;;2.30;1.20;;;12.10;99.90;;;;;;5006496;28;20400;-79
2022/01/03 07:27:12;;;;;;;0.00;0.00;;;12.10;99.90;;;;;;5001885;28;20032;-79
2022/01/03 07:29:38;;;;;;;0.00;0.00;;;12.10;99.90;;;;;;5011847;28;20046;-74
2022/01/03 07:32:04;;;;;;;7.45;0.35;;;12.00;99.90;;;;;;5011380;28;20101;-80
2022/01/03 07:34:30;;;;;;;4.47;0.60;;;12.00;99.90;;;;;;5007681;28;20497;-81
2022/01/03 07:36:56;;;;;;;2.92;1.35;;;11.90;99.90;;;;;;4998280;28;20383;-80
2022/01/03 07:39:22;;;;;;;0.00;0.00;;;11.90;99.90;;;;;;5011424;28;20040;-80
2022/01/03 07:41:47;;;;;;;1.30;0.55;;;11.90;99.90;;;;;;5008997;28;20104;-74
2022/01/03 07:44:14;;;;;;;0.80;0.55;;;11.90;99.90;;;;;;5009670;28;20028;-75
2022/01/03 07:46:39;;;;;;;0.20;0.20;;;11.90;99.90;;;;;;5016653;28;20026;-83
2022/01/03 07:49:05;;;;;;;0.00;0.00;;;11.90;99.90;;;;;;5009902;28;20060;-75
2022/01/03 07:51:31;;;;;;;0.13;0.13;;;11.90;99.90;;;;;;5004203;28;20030;-82
2022/01/03 07:53:57;;;;;;;0.00;0.00;;;11.90;99.90;;;;;;5006554;28;20037;-74
2022/01/03 07:56:23;;;;;;;0.88;0.80;;;12.00;99.90;;;;;;5008407;28;20388;-75
2022/01/03 07:58:49;;;;;;;0.35;0.35;;;12.00;99.90;;;;;;5004734;28;20089;-81
2022/01/03 08:01:15;;;;;;;0.03;0.03;;;12.00;99.90;;;;;;5008753;28;20113;-82
2022/01/03 08:03:41;;;;;;;0.00;0.00;;;12.00;99.90;;;;;;5011003;28;20032;-83
2022/01/03 08:06:08;;;;;;;0.32;0.32;;;12.10;99.90;;;;;;4999282;28;20030;-81
2022/01/03 08:08:37;;;;;;;0.20;0.20;;;12.20;99.90;;;;;;5007564;28;20034;-74
2022/01/03 08:11:04;;;;;;;6.25;1.75;;;12.20;99.90;;;;;;5001408;28;20022;-81
2022/01/03 08:13:30;;;;;;;0.20;0.20;;;12.20;99.90;;;;;;5003186;28;20061;-81
2022/01/03 08:15:55;;;;;;;0.00;0.00;;;12.30;99.90;;;;;;5007777;28;20061;-82
2022/01/03 08:18:21;;;;;;;1.17;0.73;;;12.20;99.90;;;;;;5010306;28;20441;-83
2022/01/03 08:20:47;;;;;;;0.00;0.00;;;12.30;99.90;;;;;;5011430;28;20057;-74
2022/01/03 08:23:13;;;;;;;0.28;0.28;;;12.30;99.90;;;;;;5003874;28;20033;-74
2022/01/03 08:25:38;;;;;;;0.00;0.00;;;12.30;99.90;;;;;;5009993;28;20030;-83
2022/01/03 08:28:09;;;;;;;0.10;0.10;;;12.30;99.90;;;;;;5026775;28;20057;-82
2022/01/03 08:30:36;;;;;;;0.03;0.03;;;12.30;99.90;;;;;;5030968;28;20056;-82
2022/01/03 08:33:04;;;;;;;0.00;0.00;;;12.30;99.90;;;;;;5012215;28;20033;-74
2022/01/03 08:35:30;;;;;;;0.35;0.35;;;12.30;99.90;;;;;;4992934;28;20497;-74
2022/01/03 08:37:56;;;;;;;6.60;1.30;;;12.30;99.90;;;;;;5004583;28;20413;-82
2022/01/03 08:40:22;;;;;;;0.20;0.20;;;12.30;99.90;;;;;;5017276;28;20253;-81
2022/01/03 08:42:48;;;;;;;0.00;0.00;;;12.30;99.90;;;;;;4992722;28;20093;-82
2022/01/03 08:45:14;;;;;;;3.58;1.10;;;12.30;99.90;;;;;;5009540;28;20109;-75
2022/01/03 08:47:40;;;;;;;0.17;0.17;;;12.30;99.90;;;;;;5010470;28;20396;-74
2022/01/03 08:50:07;;;;;;;0.30;0.30;;;12.30;99.90;;;;;;5014496;28;20026;-80
2022/01/03 08:52:33;;;;;;;0.05;0.05;;;12.40;99.90;;;;;;5013140;28;20034;-80
2022/01/03 08:54:59;;;;;;;0.00;0.00;;;12.40;99.90;;;;;;5014456;28;20488;-79
2022/01/03 08:57:25;;;;;;;0.00;0.00;;;12.40;99.90;;;;;;5013194;28;20767;-79
2022/01/03 08:59:51;;;;;;;0.00;0.00;;;12.40;99.90;;;;;;5003799;28;20034;-74
2022/01/03 09:02:18;;;;;;;0.00;0.00;;;12.40;99.90;;;;;;5009945;28;20065;-74
2022/01/03 09:04:45;;;;;;;2.72;0.65;;;12.30;99.90;;;;;;5035220;28;20037;-78
2022/01/03 09:07:11;;;;;;;0.38;0.38;;;12.30;99.90;;;;;;5009910;28;20018;-80
2022/01/03 09:09:37;;;;;;;0.00;0.00;;;12.40;99.90;;;;;;5009151;28;20396;-81
2022/01/03 09:12:04;;;;;;;0.03;0.03;;;12.40;99.90;;;;;;5018559;28;20034;-75
2022/01/03 09:14:30;;;;;;;0.00;0.00;;;12.40;99.90;;;;;;5016989;28;20443;-79
2022/01/03 09:16:56;;;;;;;0.20;0.20;;;12.40;99.90;;;;;;5033293;28;20034;-78
2022/01/03 09:19:21;;;;;;;3.30;0.85;;;12.50;99.90;;;;;;5035632;28;20022;-78
2022/01/03 09:21:47;;;;;;;0.25;0.25;;;12.50;99.90;;;;;;5017776;28;20060;-79
2022/01/03 09:24:22;;;;;;;0.00;0.00;;;12.60;99.90;;;;;;5018412;28;20100;-78
2022/01/03 09:29:33;;;;;;;0.45;0.35;;;12.60;99.90;;;;;;5013978;28;20145;-79
2022/01/03 09:31:58;;;;;;;0.00;0.00;;;12.70;99.90;;;;;;5013748;28;20424;-74
2022/01/03 09:34:24;;;;;;;0.10;0.10;;;12.60;99.90;;;;;;5014451;28;20030;-79
2022/01/03 09:36:49;;;;;;;0.00;0.00;;;12.70;99.90;;;;;;5017323;28;20600;-79
2022/01/03 09:39:15;;;;;;;0.00;0.00;;;12.70;99.90;;;;;;5012849;28;20405;-74
2022/01/03 09:41:58;;;;;;;0.00;0.00;;;12.70;99.90;;;;;;5014227;28;20112;-75
2022/01/03 09:44:30;;;;;;;0.00;0.00;;;12.60;99.90;;;;;;5012549;28;20025;-74
2022/01/03 09:47:00;;;;;;;0.00;0.00;;;12.60;99.90;;;;;;5013519;28;20026;-80
2022/01/03 09:49:29;;;;;;;0.00;0.00;;;12.70;99.90;;;;;;5016540;28;20025;-80
2022/01/03 09:51:56;;;;;;;0.00;0.00;;;12.70;99.90;;;;;;5011257;28;20469;-74
2022/01/03 09:54:22;;;;;;;0.17;0.17;;;12.80;99.90;;;;;;5010464;28;20030;-74
2022/01/03 09:56:51;;;;;;;0.93;0.55;;;12.90;99.90;;;;;;5013861;28;20481;-80
2022/01/03 09:59:18;;;;;;;0.03;0.03;;;13.00;99.90;;;;;;5011708;28;20030;-78
2022/01/03 10:01:45;;;;;;;0.00;0.00;;;13.10;99.90;;;;;;5012322;28;20033;-79
2022/01/03 10:04:13;;;;;;;0.80;0.75;;;13.10;99.90;;;;;;5009705;28;20132;-75
2022/01/03 10:06:40;;;;;;;2.67;0.93;;;13.10;99.90;;;;;;5013378;28;20033;-74
2022/01/03 10:09:05;;;;;;;1.90;0.77;;;13.10;99.90;;;;;;5008502;28;20029;-79
2022/01/03 10:11:31;;;;;;;0.52;0.20;;;13.20;99.90;;;;;;4996747;28;20064;-80
2022/01/03 10:13:59;;;;;;;0.20;0.20;;;13.20;99.90;;;;;;5004746;28;20097;-80
2022/01/03 10:16:25;;;;;;;0.15;0.15;;;13.30;99.90;;;;;;4999366;28;20042;-82
2022/01/03 10:18:50;;;;;;;0.00;0.00;;;13.40;99.90;;;;;;4992858;28;20030;-75
2022/01/03 10:21:35;;;;;;;0.47;0.47;;;13.40;99.90;;;;;;5001728;28;20046;-82
2022/01/03 10:24:01;;;;;;;1.17;0.35;;;13.30;99.90;;;;;;5003119;28;20129;-80
2022/01/03 10:26:27;;;;;;;0.00;0.00;;;13.20;99.90;;;;;;5009389;28;20068;-81
2022/01/03 10:29:16;;;;;;;0.20;0.20;;;13.30;99.90;;;;;;5022299;28;20050;-82
2022/01/03 10:31:44;;;;;;;0.00;0.00;;;13.60;99.90;;;;;;5003562;28;20121;-74
2022/01/03 10:34:12;;;;;;;0.25;0.25;;;13.60;99.90;;;;;;5007941;28;20023;-81
2022/01/03 10:36:39;;;;;;;0.15;0.15;;;13.50;99.90;;;;;;5015054;28;20508;-81
2022/01/03 10:39:30;;;;;;;0.08;0.08;;;13.40;99.90;;;;;;5018972;28;20029;-80
2022/01/03 10:42:17;;;;;;;0.03;0.03;;;13.40;99.90;;;;;;5005820;28;20030;-82
2022/01/03 10:44:43;;;;;;;0.00;0.00;;;13.30;99.90;;;;;;5000851;28;20033;-74
2022/01/03 10:47:15;;;;;;;0.20;0.20;;;13.30;99.90;;;;;;4996916;28;20029;-79
2022/01/03 10:49:43;;;;;;;0.13;0.13;;;13.30;99.90;;;;;;4996840;28;20022;-81
2022/01/03 10:52:17;;;;;;;0.00;0.00;;;13.30;99.90;;;;;;5001859;28;20040;-82
2022/01/03 10:54:45;;;;;;;0.10;0.10;;;13.60;99.90;;;;;;5031499;28;20042;-81
2022/01/03 10:57:10;;;;;;;9.40;2.72;;;13.80;99.90;;;;;;5024837;28;20042;-78
2022/01/03 10:59:36;;;;;;;0.03;0.03;;;13.80;99.90;;;;;;4995593;28;20113;-77
2022/01/03 11:02:07;;;;;;;8.90;1.88;;;13.70;99.90;;;;;;5003165;28;20556;-85
2022/01/03 11:04:57;;;;;;;0.00;0.00;;;13.70;99.90;;;;;;5006815;28;20044;-84
2022/01/03 11:13:11;;;;;;;0.00;0.00;;;13.60;99.90;;;;;;4996714;28;20397;-83
2022/01/03 11:16:02;;;;;;;18.70;2.47;;;13.50;99.90;;;;;;5015263;28;20500;-84
2022/01/03 11:18:29;;;;;;;0.30;0.30;;;13.40;99.90;;;;;;5010993;28;20577;-84
2022/01/03 11:21:15;;;;;;;0.00;0.00;;;13.40;99.90;;;;;;5019612;28;20040;-84
2022/01/03 11:23:58;;;;;;;0.43;0.35;;;13.30;99.90;;;;;;5015766;28;20123;-76
2022/01/03 11:26:25;;;;;;;0.63;0.30;;;13.30;99.90;;;;;;5014093;28;20358;-77
2022/01/03 11:28:52;;;;;;;0.13;0.13;;;13.30;99.90;;;;;;5003965;28;20045;-83
2022/01/03 11:31:20;;;;;;;0.10;0.10;;;13.30;99.90;;;;;;5007449;28;20056;-84
2022/01/03 11:33:49;;;;;;;0.00;0.00;;;13.30;99.90;;;;;;5007357;28;20029;-77
2022/01/03 11:36:17;;;;;;;0.00;0.00;;;13.30;99.90;;;;;;5008361;28;20025;-78
2022/01/03 11:38:45;;;;;;;0.70;0.63;;;13.30;99.90;;;;;;5005885;28;20092;-76
2022/01/03 11:41:12;;;;;;;0.00;0.00;;;13.30;99.90;;;;;;5000732;28;20053;-82
2022/01/03 11:43:40;;;;;;;11.13;0.85;;;13.30;99.90;;;;;;5007074;28;20040;-83
2022/01/03 11:46:07;;;;;;;0.00;0.00;;;13.20;99.90;;;;;;4997410;28;20405;-83
2022/01/03 11:48:33;;;;;;;0.00;0.00;;;13.20;99.90;;;;;;5003915;28;20548;-83
2022/01/03 11:51:02;;;;;;;0.32;0.32;;;13.20;99.90;;;;;;4996214;28;20041;-81
2022/01/03 11:53:30;;;;;;;0.17;0.17;;;13.20;99.90;;;;;;5002651;28;20034;-83
2022/01/03 11:56:09;;;;;;;0.05;0.05;;;13.30;99.90;;;;;;5002767;28;20023;-77
2022/01/03 11:59:02;;;;;;;1.20;1.10;;;13.40;99.90;;;;;;5004828;28;20131;-82
2022/01/03 12:04:38;;;;;;;0.00;0.00;;;13.40;99.90;;;;;;5001520;28;20386;-77
2022/01/03 12:07:08;;;;;;;0.20;0.20;;;13.30;99.90;;;;;;5006119;28;20490;-83
2022/01/03 12:09:40;;;;;;;0.10;0.10;;;13.30;99.90;;;;;;5000774;28;20077;-83
2022/01/03 12:12:07;;;;;;;0.93;0.77;;;13.20;99.90;;;;;;4999586;28;20034;-84
2022/01/03 12:14:43;;;;;;;3.63;1.75;;;13.20;99.90;;;;;;5000469;28;20038;-77
2022/01/03 12:17:10;;;;;;;0.00;0.00;;;13.20;99.90;;;;;;5016459;28;20061;-78
2022/01/03 12:19:47;;;;;;;0.00;0.00;;;13.30;99.90;;;;;;5011094;28;20168;-85
2022/01/03 12:22:17;;;;;;;0.65;0.63;;;13.30;99.90;;;;;;5000419;28;20033;-77
2022/01/03 12:24:56;;;;;;;2.80;1.10;;;13.40;99.90;;;;;;5007479;28;20054;-82
2022/01/03 12:27:26;;;;;;;0.00;0.00;;;13.50;99.90;;;;;;5005555;28;20032;-77
2022/01/03 12:29:58;;;;;;;0.22;0.22;;;13.60;99.90;;;;;;5010438;28;20121;-77
2022/01/03 12:32:28;;;;;;;0.57;0.28;;;13.70;99.90;;;;;;5016831;28;20026;-83
2022/01/03 12:35:23;;;;;;;0.38;0.38;;;14.10;99.90;;;;;;4999398;28;20035;-85
2022/01/03 12:37:54;;;;;;;2.10;1.25;;;14.40;99.90;;;;;;5022318;28;20026;-84
2022/01/03 12:40:32;;;;;;;5.05;2.58;;;14.50;99.90;;;;;;5008092;28;20041;-83
2022/01/03 12:43:05;;;;;;;0.20;0.20;;;14.30;99.90;;;;;;5002740;28;20053;-76
2022/01/03 12:45:33;;;;;;;0.00;0.00;;;14.10;99.90;;;;;;4997134;28;20026;-84
2022/01/03 12:48:11;;;;;;;1.08;0.47;;;14.00;99.90;;;;;;5010701;28;20026;-84
2022/01/03 12:50:51;;;;;;;0.08;0.08;;;13.80;99.90;;;;;;5007736;28;20543;-76
2022/01/03 12:53:23;;;;;;;2.00;0.30;;;13.70;99.90;;;;;;5013206;28;20113;-77
2022/01/03 12:55:53;;;;;;;0.40;0.40;;;13.60;99.90;;;;;;5011449;28;20497;-77
2022/01/03 12:58:19;;;;;;;0.30;0.30;;;13.50;99.90;;;;;;4993141;28;20066;-82
2022/01/03 13:01:08;;;;;;;0.38;0.38;;;13.40;99.90;;;;;;5018122;28;20057;-82
2022/01/03 13:03:50;;;;;;;0.00;0.00;;;13.40;99.90;;;;;;5003157;28;20059;-77
2022/01/03 13:06:26;;;;;;;0.35;0.25;;;13.40;99.90;;;;;;5005278;28;20014;-77
2022/01/03 13:08:54;;;;;;;1.35;0.57;;;13.40;99.90;;;;;;5008151;28;20116;-76
2022/01/03 13:11:38;;;;;;;0.28;0.28;;;13.40;99.90;;;;;;5026678;28;20029;-82